createdAt,value
2019-05-15T00:01:08.820Z,1.50
2019-05-15T00:03:39.102Z,1.60
2019-05-15T00:06:08.902Z,1.17
2019-05-15T00:08:38.681Z,1.60
2019-05-15T00:11:08.448Z,1.77
2019-05-15T00:13:38.836Z,1.97
2019-05-15T00:16:08.643Z,1.83
2019-05-15T00:18:39.036Z,1.67
2019-05-15T00:21:28.635Z,1.57
2019-05-15T00:23:58.655Z,1.60
2019-05-15T00:26:29.900Z,4.13
2019-05-15T00:29:11.623Z,3.53
2019-05-15T00:31:29.639Z,2.63
2019-05-15T00:33:58.985Z,2.23
2019-05-15T00:36:28.641Z,2.40
2019-05-15T00:38:59.105Z,2.23
2019-05-15T00:41:28.517Z,2.73
2019-05-15T00:44:01.260Z,2.30
2019-05-15T00:47:26.057Z,2.20
2019-05-15T00:49:54.832Z,2.20
2019-05-15T00:52:24.028Z,2.40
2019-05-15T00:54:53.338Z,2.00
2019-05-15T00:57:22.443Z,1.63
2019-05-15T00:59:51.462Z,2.03
2019-05-15T01:02:20.533Z,2.03
2019-05-15T01:04:49.585Z,1.73
2019-05-15T01:07:18.883Z,2.03
2019-05-15T01:09:48.736Z,2.00
2019-05-15T01:12:18.526Z,2.07
2019-05-15T01:14:48.942Z,2.13
2019-05-15T01:17:18.444Z,2.43
2019-05-15T01:19:48.248Z,2.30
2019-05-15T01:22:19.333Z,2.50
2019-05-15T01:24:48.571Z,2.43
2019-05-15T01:27:18.472Z,2.20
2019-05-15T01:29:49.383Z,2.30
2019-05-15T01:32:19.276Z,2.57
2019-05-15T01:34:49.197Z,2.07
2019-05-15T01:37:18.995Z,2.50
2019-05-15T01:39:48.521Z,2.20
2019-05-15T01:42:18.634Z,2.40
2019-05-15T01:44:48.547Z,2.47
2019-05-15T01:47:18.960Z,2.33
2019-05-15T01:49:49.031Z,2.63
2019-05-15T01:52:18.710Z,2.50
2019-05-15T01:54:48.890Z,2.50
2019-05-15T01:57:18.701Z,2.17
2019-05-15T01:59:57.162Z,2.20
2019-05-15T02:02:18.926Z,2.40
2019-05-15T02:04:48.746Z,2.33
2019-05-15T02:07:18.813Z,2.27
2019-05-15T02:09:49.185Z,2.00
2019-05-15T02:12:19.119Z,2.17
2019-05-15T02:14:48.586Z,1.87
2019-05-15T02:17:18.945Z,2.00
2019-05-15T02:19:48.479Z,2.27
2019-05-15T02:22:18.961Z,2.50
2019-05-15T02:24:48.840Z,2.30
2019-05-15T02:27:18.811Z,2.27
2019-05-15T02:29:49.356Z,2.40
2019-05-15T02:32:19.290Z,2.63
2019-05-15T02:34:50.086Z,2.33
2019-05-15T02:37:20.002Z,2.40
2019-05-15T02:39:49.758Z,2.07
2019-05-15T02:42:19.434Z,2.33
2019-05-15T02:44:50.108Z,2.57
2019-05-15T02:47:20.081Z,2.23
2019-05-15T02:49:48.998Z,2.67
2019-05-15T02:52:19.911Z,2.50
2019-05-15T02:54:49.867Z,2.50
2019-05-15T02:57:19.302Z,2.70
2019-05-15T02:59:49.869Z,2.20
2019-05-15T03:02:19.754Z,2.60
2019-05-15T03:04:48.850Z,2.03
2019-05-15T03:07:19.299Z,2.90
2019-05-15T03:09:49.683Z,3.63
2019-05-15T03:12:19.666Z,4.10
2019-05-15T03:14:49.384Z,3.40
2019-05-15T03:17:19.131Z,3.10
2019-05-15T03:19:49.823Z,2.97
2019-05-15T03:22:19.846Z,3.20
2019-05-15T03:24:50.275Z,3.57
2019-05-15T03:27:19.996Z,3.00
2019-05-15T03:29:49.515Z,2.63
2019-05-15T03:32:32.288Z,2.20
2019-05-15T03:34:56.083Z,2.07
2019-05-15T03:37:22.754Z,2.10
2019-05-15T03:39:52.161Z,2.43
2019-05-15T03:42:21.273Z,2.37
2019-05-15T03:44:50.677Z,2.40
2019-05-15T03:47:20.056Z,2.20
2019-05-15T03:49:49.512Z,2.80
2019-05-15T03:52:19.456Z,2.30
2019-05-15T03:54:49.611Z,1.97
2019-05-15T03:57:22.825Z,2.13
2019-05-15T03:59:49.858Z,2.50
2019-05-15T04:02:19.544Z,2.87
2019-05-15T04:04:50.168Z,3.20
2019-05-15T04:07:19.901Z,3.40
2019-05-15T04:09:49.440Z,2.97
2019-05-15T04:12:19.629Z,2.40
2019-05-15T04:14:50.101Z,2.27
2019-05-15T04:17:19.869Z,4.17
2019-05-15T04:19:49.665Z,3.97
2019-05-15T04:22:19.900Z,3.77
2019-05-15T04:24:49.647Z,3.30
2019-05-15T04:27:20.809Z,3.27
2019-05-15T04:29:50.244Z,2.40
2019-05-15T04:32:20.219Z,2.93
2019-05-15T04:34:49.899Z,2.53
2019-05-15T04:37:19.292Z,3.07
2019-05-15T04:39:49.070Z,2.87
2019-05-15T04:42:20.222Z,3.60
2019-05-15T04:44:49.596Z,2.57
2019-05-15T04:47:19.332Z,2.20
2019-05-15T04:49:50.330Z,2.00
2019-05-15T04:52:19.751Z,2.40
2019-05-15T04:54:49.465Z,2.50
2019-05-15T04:57:19.434Z,2.13
2019-05-15T04:59:49.690Z,2.60
2019-05-15T05:02:26.681Z,2.27
2019-05-15T05:04:49.562Z,3.00
2019-05-15T05:07:19.607Z,2.40
2019-05-15T05:09:49.112Z,3.47
2019-05-15T05:12:19.342Z,1.93
2019-05-15T05:14:48.688Z,2.10
2019-05-15T05:17:19.599Z,2.00
2019-05-15T05:19:51.326Z,2.30
2019-05-15T05:22:20.191Z,2.60
2019-05-15T05:24:49.302Z,3.03
2019-05-15T05:27:18.335Z,2.77
2019-05-15T05:29:48.026Z,3.23
2019-05-15T05:32:30.948Z,3.00
2019-05-15T05:34:49.166Z,2.47
2019-05-15T05:37:18.450Z,2.37
2019-05-15T05:39:48.336Z,3.10
2019-05-15T05:42:18.530Z,2.90
2019-05-15T05:44:48.913Z,3.13
2019-05-15T05:47:18.369Z,2.50
2019-05-15T05:49:48.853Z,2.13
2019-05-15T05:52:18.793Z,2.50
2019-05-15T05:54:48.994Z,2.60
2019-05-15T05:57:19.359Z,2.30
2019-05-15T05:59:49.203Z,2.43
2019-05-15T06:02:18.705Z,2.83
2019-05-15T06:04:47.969Z,2.50
2019-05-15T06:07:18.571Z,3.10
2019-05-15T06:09:48.598Z,2.70
2019-05-15T06:12:18.902Z,2.73
2019-05-15T06:14:48.518Z,3.10
2019-05-15T06:17:19.085Z,3.13
2019-05-15T06:19:48.592Z,3.00
2019-05-15T06:22:18.828Z,2.93
2019-05-15T06:24:48.547Z,2.47
2019-05-15T06:27:20.031Z,2.60
2019-05-15T06:29:49.046Z,3.13
2019-05-15T06:32:19.511Z,2.77
2019-05-15T06:38:45.266Z,2.70
2019-05-15T06:41:14.172Z,3.07
2019-05-15T06:43:42.943Z,2.83
2019-05-15T06:46:11.975Z,3.50
2019-05-15T06:48:41.011Z,3.50
2019-05-15T06:51:09.798Z,2.60
2019-05-15T06:53:38.842Z,3.10
2019-05-15T06:56:08.147Z,3.10
2019-05-15T06:58:38.435Z,3.20
2019-05-15T07:01:08.894Z,3.20
2019-05-15T07:03:39.226Z,3.10
2019-05-15T07:06:09.719Z,3.13
2019-05-15T07:08:38.941Z,3.07
2019-05-15T07:11:08.825Z,2.90
2019-05-15T07:13:38.577Z,2.80
2019-05-15T07:16:08.218Z,2.70
2019-05-15T07:18:39.174Z,3.30
2019-05-15T07:21:10.375Z,3.10
2019-05-15T07:23:38.948Z,3.50
2019-05-15T07:26:09.424Z,3.37
2019-05-15T07:28:38.732Z,3.00
2019-05-15T07:31:11.469Z,3.53
2019-05-15T07:33:43.180Z,2.90
2019-05-15T07:36:10.115Z,3.13
2019-05-15T07:38:39.441Z,3.00
2019-05-15T07:41:10.275Z,3.10
2019-05-15T07:43:39.631Z,3.07
2019-05-15T07:46:08.705Z,3.07
2019-05-15T07:48:38.601Z,3.13
2019-05-15T07:51:11.472Z,3.03
2019-05-15T07:53:39.266Z,2.90
2019-05-15T07:56:11.728Z,2.60
2019-05-15T07:58:39.290Z,2.97
2019-05-15T08:01:09.902Z,2.87
2019-05-15T08:03:55.545Z,2.70
2019-05-15T08:06:10.672Z,2.70
2019-05-15T08:08:39.654Z,2.93
2019-05-15T08:11:20.302Z,2.60
2019-05-15T08:13:39.178Z,2.60
2019-05-15T08:16:08.651Z,2.87
2019-05-15T08:18:39.371Z,2.67
2019-05-15T08:21:09.146Z,2.63
2019-05-15T08:23:39.152Z,2.73
2019-05-15T08:26:08.963Z,2.80
2019-05-15T08:28:38.304Z,2.73
2019-05-15T08:31:10.309Z,2.60
2019-05-15T08:33:39.140Z,2.60
2019-05-15T08:36:08.718Z,2.30
2019-05-15T08:38:38.450Z,2.40
2019-05-15T08:41:11.178Z,2.60
2019-05-15T08:43:38.367Z,2.50
2019-05-15T08:46:08.379Z,2.60
2019-05-15T08:48:38.523Z,2.50
2019-05-15T08:51:08.697Z,2.60
2019-05-15T08:53:38.260Z,2.50
2019-05-15T08:56:08.533Z,2.93
2019-05-15T08:58:38.311Z,3.30
2019-05-15T09:01:09.711Z,2.60
2019-05-15T09:03:38.618Z,2.70
2019-05-15T09:06:09.195Z,2.27
2019-05-15T09:08:39.390Z,2.20
2019-05-15T09:11:09.463Z,2.47
2019-05-15T09:13:43.312Z,2.30
2019-05-15T09:16:09.369Z,2.23
2019-05-15T09:18:39.356Z,2.67
2019-05-15T09:21:09.030Z,2.50
2019-05-15T09:23:39.076Z,2.23
2019-05-15T09:26:09.394Z,2.37
2019-05-15T09:28:39.169Z,2.20
2019-05-15T09:31:08.591Z,2.20
2019-05-15T09:33:38.642Z,2.07
2019-05-15T09:36:09.099Z,2.13
2019-05-15T09:38:39.112Z,2.63
2019-05-15T09:41:09.118Z,2.30
2019-05-15T09:43:38.896Z,2.20
2019-05-15T09:46:10.431Z,2.60
2019-05-15T09:48:40.202Z,2.53
2019-05-15T09:51:09.447Z,2.20
2019-05-15T09:53:39.436Z,2.03
2019-05-15T09:56:09.054Z,2.30
2019-05-15T09:58:38.630Z,2.07
2019-05-15T10:01:08.669Z,2.30
2019-05-15T10:03:39.532Z,2.00
2019-05-15T10:06:09.106Z,2.53
2019-05-15T10:08:39.798Z,2.03
2019-05-15T10:11:09.298Z,2.63
2019-05-15T10:13:38.766Z,2.30
2019-05-15T10:16:08.559Z,1.90
2019-05-15T10:18:38.908Z,2.40
2019-05-15T10:21:08.961Z,2.23
2019-05-15T10:23:40.490Z,2.97
2019-05-15T10:26:13.857Z,2.53
2019-05-15T10:28:39.678Z,2.27
2019-05-15T10:31:09.525Z,2.30
2019-05-15T10:33:39.439Z,2.00
2019-05-15T10:36:09.394Z,2.30
2019-05-15T10:38:39.375Z,2.33
2019-05-15T10:41:14.506Z,2.30
2019-05-15T10:43:45.785Z,2.20
2019-05-15T10:46:13.365Z,1.93
2019-05-15T10:48:40.617Z,2.20
2019-05-15T10:51:10.404Z,2.10
2019-05-15T10:53:39.678Z,1.70
2019-05-15T10:56:09.102Z,2.30
2019-05-15T10:58:39.157Z,2.07
2019-05-15T11:01:11.356Z,1.90
2019-05-15T11:03:40.339Z,1.90
2019-05-15T11:06:09.791Z,2.33
2019-05-15T11:08:40.603Z,2.27
2019-05-15T11:11:09.704Z,1.87
2019-05-15T11:13:38.499Z,1.93
2019-05-15T11:16:07.481Z,1.83
2019-05-15T11:18:39.098Z,1.70
2019-05-15T11:21:08.259Z,1.70
2019-05-15T11:23:39.434Z,1.90
2019-05-15T11:26:08.931Z,1.77
2019-05-15T11:28:39.070Z,2.03
2019-05-15T11:31:10.364Z,2.27
2019-05-15T11:33:39.985Z,1.60
2019-05-15T11:36:09.208Z,1.70
2019-05-15T11:38:38.680Z,1.53
2019-05-15T11:41:08.670Z,1.90
2019-05-15T11:43:38.767Z,1.90
2019-05-15T11:46:09.899Z,1.53
2019-05-15T11:48:39.482Z,2.00
2019-05-15T11:51:09.528Z,1.67
2019-05-15T11:53:39.853Z,2.07
2019-05-15T11:56:09.640Z,2.90
2019-05-15T11:58:39.088Z,1.90
2019-05-15T12:01:08.707Z,6.37
2019-05-15T12:03:38.589Z,2.93
2019-05-15T12:06:18.054Z,2.23
2019-05-15T12:08:38.755Z,1.70
2019-05-15T12:11:11.847Z,2.30
2019-05-15T12:13:38.526Z,2.77
2019-05-15T12:16:07.588Z,4.83
2019-05-15T12:18:38.852Z,3.23
2019-05-15T12:21:07.525Z,1.80
2019-05-15T12:23:38.721Z,2.07
2019-05-15T12:26:09.115Z,2.60
2019-05-15T12:28:40.502Z,2.30
2019-05-15T12:31:09.220Z,2.73
2019-05-15T12:33:38.604Z,2.20
2019-05-15T12:36:10.790Z,2.83
2019-05-15T12:38:39.786Z,2.17
2019-05-15T13:01:18.199Z,2.33
2019-05-15T13:03:48.620Z,1.80
2019-05-15T13:06:19.206Z,1.70
2019-05-15T13:08:48.953Z,1.67
2019-05-15T13:11:18.255Z,1.80
2019-05-15T13:13:48.536Z,1.60
2019-05-15T13:19:48.085Z,1.53
2019-05-15T13:22:18.148Z,2.17
2019-05-15T13:24:48.267Z,3.37
2019-05-15T13:27:18.251Z,2.53
2019-05-15T13:29:48.638Z,2.90
2019-05-15T13:32:18.372Z,1.60
2019-05-15T13:34:48.791Z,1.97
2019-05-15T13:37:26.751Z,2.13
2019-05-15T13:39:50.010Z,1.77
2019-05-15T13:42:18.857Z,1.70
2019-05-15T13:44:48.303Z,1.97
2019-05-15T13:47:18.667Z,2.00
2019-05-15T13:49:48.178Z,2.00
2019-05-15T13:52:18.741Z,1.97
2019-05-15T13:54:48.573Z,2.40
2019-05-15T13:57:18.046Z,2.33
2019-05-15T13:59:48.495Z,2.07
2019-05-15T14:02:18.723Z,2.30
2019-05-15T14:04:49.070Z,1.97
2019-05-15T14:07:19.266Z,2.27
2019-05-15T14:09:48.857Z,2.10
2019-05-15T14:12:18.382Z,1.90
2019-05-15T14:14:49.011Z,2.10
2019-05-15T14:17:18.229Z,1.87
2019-05-15T14:19:48.603Z,1.83
2019-05-15T14:22:18.076Z,1.70
2019-05-15T14:24:48.894Z,1.90
2019-05-15T14:27:19.462Z,2.00
2019-05-15T14:29:49.138Z,1.80
2019-05-15T14:32:32.769Z,2.10
2019-05-15T14:34:51.181Z,2.43
2019-05-15T14:37:20.459Z,1.80
2019-05-15T14:39:52.361Z,2.37
2019-05-15T14:42:19.782Z,2.00
2019-05-15T14:44:48.868Z,2.20
2019-05-15T14:47:19.200Z,1.97
2019-05-15T14:49:49.547Z,1.60
2019-05-15T14:52:19.016Z,1.70
2019-05-15T14:54:49.015Z,2.10
2019-05-15T14:57:18.345Z,2.30
2019-05-15T14:59:48.815Z,1.50
2019-05-15T15:02:18.945Z,2.00
2019-05-15T15:04:48.690Z,2.60
2019-05-15T15:07:18.879Z,1.90
2019-05-15T15:09:48.947Z,1.77
2019-05-15T15:12:18.873Z,1.97
2019-05-15T15:14:48.651Z,2.40
2019-05-15T15:17:19.621Z,2.40
2019-05-15T15:19:51.716Z,2.13
2019-05-15T15:22:20.262Z,2.70
2019-05-15T15:24:49.316Z,2.70
2019-05-15T15:27:19.430Z,1.83
2019-05-15T15:29:48.671Z,2.27
2019-05-15T15:32:18.559Z,2.30
2019-05-15T15:34:48.063Z,1.97
2019-05-15T15:37:17.532Z,2.40
2019-05-15T15:39:48.176Z,1.90
2019-05-15T15:42:17.515Z,2.50
2019-05-15T15:44:48.855Z,2.00
2019-05-15T15:47:18.007Z,2.70
2019-05-15T15:49:47.926Z,2.43
2019-05-15T15:52:18.130Z,2.47
2019-05-15T15:54:47.384Z,2.87
2019-05-15T15:57:19.185Z,2.23
2019-05-15T15:59:49.174Z,2.43
2019-05-15T16:02:18.687Z,2.83
2019-05-15T16:04:48.398Z,2.30
2019-05-15T16:07:17.914Z,2.63
2019-05-15T16:09:48.341Z,2.50
2019-05-15T16:12:18.587Z,2.10
2019-05-15T16:14:48.842Z,2.70
2019-05-15T16:17:18.301Z,2.40
2019-05-15T16:19:49.124Z,2.80
2019-05-15T16:22:19.029Z,2.60
2019-05-15T16:24:49.176Z,1.90
2019-05-15T16:27:18.848Z,2.93
2019-05-15T16:29:48.510Z,2.70
2019-05-15T16:32:21.540Z,2.87
2019-05-15T16:34:48.541Z,1.70
2019-05-15T16:37:18.870Z,3.10
2019-05-15T16:39:48.765Z,2.00
2019-05-15T16:42:18.181Z,1.73
2019-05-15T16:44:48.970Z,2.47
2019-05-15T16:47:18.647Z,1.50
2019-05-15T16:49:48.638Z,1.70
2019-05-15T16:52:18.200Z,2.30
2019-05-15T16:54:48.998Z,1.60
2019-05-15T16:57:18.430Z,2.10
2019-05-15T16:59:48.160Z,1.60
2019-05-15T17:02:18.803Z,1.93
2019-05-15T17:04:48.856Z,2.00
2019-05-15T17:07:18.310Z,1.80
2019-05-15T17:09:48.057Z,1.90
2019-05-15T17:12:17.329Z,2.10
2019-05-15T17:14:48.525Z,3.17
2019-05-15T17:17:18.330Z,2.30
2019-05-15T17:19:48.503Z,1.97
2019-05-15T17:22:18.543Z,2.03
2019-05-15T17:24:48.854Z,2.00
2019-05-15T17:27:18.623Z,2.20
2019-05-15T17:29:49.003Z,2.70
2019-05-15T17:32:18.519Z,2.07
2019-05-15T17:34:48.787Z,2.20
2019-05-15T17:37:18.301Z,2.20
2019-05-15T17:39:48.500Z,2.20
2019-05-15T17:42:18.171Z,2.17
2019-05-15T17:44:48.806Z,1.93
2019-05-15T17:47:18.210Z,2.00
2019-05-15T17:49:48.168Z,2.50
2019-05-15T17:52:18.348Z,1.93
2019-05-15T17:54:49.114Z,2.30
2019-05-15T17:57:19.425Z,2.20
2019-05-15T17:59:48.945Z,2.13
2019-05-15T18:02:19.006Z,2.20
2019-05-15T18:04:48.510Z,2.10
2019-05-15T18:07:17.322Z,2.23
2019-05-15T18:09:53.891Z,2.40
2019-05-15T18:12:17.678Z,2.30
2019-05-15T18:14:47.668Z,2.10
2019-05-15T18:17:18.722Z,2.20
2019-05-15T18:19:48.646Z,2.03
2019-05-15T18:22:18.407Z,1.90
2019-05-15T18:24:48.547Z,1.90
2019-05-15T18:27:18.523Z,2.20
2019-05-15T18:29:48.213Z,1.80
2019-05-15T18:32:18.907Z,1.90
2019-05-15T18:34:48.823Z,2.33
2019-05-15T18:37:19.127Z,2.40
2019-05-15T18:40:01.149Z,2.47
2019-05-15T18:42:19.624Z,2.77
2019-05-15T18:44:48.873Z,2.60
2019-05-15T18:47:18.861Z,3.00
2019-05-15T18:50:03.274Z,2.70
2019-05-15T18:52:19.257Z,3.87
2019-05-15T18:54:48.745Z,2.87
2019-05-15T18:57:18.641Z,2.80
2019-05-15T18:59:48.760Z,2.77
2019-05-15T19:02:19.217Z,2.67
2019-05-15T19:04:49.115Z,3.30
2019-05-15T19:07:18.530Z,4.40
2019-05-15T19:09:48.018Z,3.33
2019-05-15T19:12:17.962Z,4.47
2019-05-15T19:14:49.217Z,5.07
2019-05-15T19:17:18.810Z,4.80
2019-05-15T19:19:48.270Z,3.40
2019-05-15T19:22:19.271Z,3.43
2019-05-15T19:24:49.002Z,2.77
2019-05-15T19:27:18.812Z,3.20
2019-05-15T19:29:48.437Z,3.50
2019-05-15T19:32:17.848Z,2.33
2019-05-15T19:34:48.338Z,2.67
2019-05-15T19:37:18.349Z,2.70
2019-05-15T19:39:47.994Z,2.60
2019-05-15T19:42:18.158Z,2.60
2019-05-15T19:44:48.463Z,2.83
2019-05-15T19:47:18.533Z,2.50
2019-05-15T19:49:48.406Z,2.50
2019-05-15T19:52:17.967Z,3.10
2019-05-15T19:54:48.491Z,3.53
2019-05-15T19:57:18.634Z,4.00
2019-05-15T19:59:48.863Z,2.33
2019-05-15T20:02:18.223Z,2.53
2019-05-15T20:04:48.974Z,4.07
2019-05-15T20:07:18.676Z,4.10
2019-05-15T20:09:47.925Z,3.37
2019-05-15T20:12:18.550Z,3.17
2019-05-15T20:14:48.834Z,2.97
2019-05-15T20:17:18.385Z,3.10
2019-05-15T20:19:48.829Z,3.17
2019-05-15T20:22:18.900Z,3.27
2019-05-15T20:24:48.246Z,3.30
2019-05-15T20:27:18.747Z,2.60
2019-05-15T20:29:48.701Z,3.77
2019-05-15T20:32:18.461Z,3.07
2019-05-15T20:34:48.347Z,2.43
2019-05-15T20:37:18.351Z,2.70
2019-05-15T20:39:49.274Z,2.87
2019-05-15T20:42:18.643Z,2.53
2019-05-15T20:44:48.559Z,2.37
2019-05-15T20:47:18.730Z,2.60
2019-05-15T20:49:48.675Z,1.80
2019-05-15T20:52:21.446Z,2.37
2019-05-15T20:54:48.607Z,2.60
2019-05-15T20:57:17.673Z,2.40
2019-05-15T20:59:48.052Z,2.07
2019-05-15T21:02:18.735Z,2.13
2019-05-15T21:04:48.015Z,1.90
2019-05-15T21:07:23.361Z,1.73
2019-05-15T21:09:48.444Z,1.80
2019-05-15T21:12:18.069Z,2.17
2019-05-15T21:14:48.371Z,2.27
2019-05-15T21:17:19.867Z,2.23
2019-05-15T21:19:48.920Z,2.00
2019-05-15T21:22:18.182Z,2.50
2019-05-15T21:24:47.061Z,2.60
2019-05-15T21:27:18.721Z,2.30
2019-05-15T21:29:49.069Z,2.70
2019-05-15T21:32:19.592Z,1.90
2019-05-15T21:34:49.423Z,2.73
2019-05-15T21:37:18.793Z,2.37
2019-05-15T21:39:48.631Z,2.10
2019-05-15T21:42:18.414Z,2.70
2019-05-15T21:44:48.842Z,2.80
2019-05-15T21:47:18.878Z,2.43
2019-05-15T21:49:48.326Z,2.30
2019-05-15T21:52:18.558Z,5.97
2019-05-15T21:54:50.521Z,11.20
2019-05-15T21:57:32.795Z,18.77
2019-05-15T21:59:49.713Z,6.43
2019-05-15T22:02:20.656Z,4.40
2019-05-15T22:04:55.649Z,3.90
2019-05-15T22:07:21.251Z,4.30
2019-05-15T22:09:50.523Z,4.17
2019-05-15T22:12:20.247Z,3.90
2019-05-15T22:14:49.634Z,4.13
2019-05-15T22:17:18.998Z,3.23
2019-05-15T22:19:49.076Z,5.27
2019-05-15T22:22:18.394Z,3.53
2019-05-15T22:24:48.334Z,2.90
2019-05-15T22:27:21.065Z,2.67
2019-05-15T22:29:49.122Z,1.93
2019-05-15T22:32:18.823Z,1.90
2019-05-15T22:34:55.099Z,1.60
2019-05-15T22:37:21.513Z,1.60
2019-05-15T22:39:50.001Z,1.97
2019-05-15T22:42:18.870Z,1.73
2019-05-15T22:44:47.908Z,2.03
2019-05-15T22:47:17.889Z,2.13
2019-05-15T22:49:48.594Z,1.90
2019-05-15T22:52:18.423Z,1.60
2019-05-15T22:54:48.001Z,1.73
2019-05-15T22:57:17.310Z,1.60
2019-05-15T22:59:48.645Z,1.30
2019-05-15T23:02:18.019Z,1.43
2019-05-15T23:04:46.873Z,1.70
2019-05-15T23:07:16.129Z,1.70
2019-05-15T23:09:48.843Z,1.70
2019-05-15T23:12:18.324Z,1.63
2019-05-15T23:14:48.507Z,2.70
2019-05-15T23:17:17.799Z,3.20
2019-05-15T23:19:48.576Z,3.27
2019-05-15T23:22:18.660Z,2.63
2019-05-15T23:24:47.977Z,2.70
2019-05-15T23:27:18.138Z,2.10
2019-05-15T23:29:49.129Z,2.60
2019-05-15T23:32:18.438Z,2.73
2019-05-15T23:34:49.167Z,2.70
2019-05-15T23:37:19.177Z,2.03
2019-05-15T23:39:48.767Z,2.70
2019-05-15T23:42:18.437Z,2.60
2019-05-15T23:44:48.664Z,2.20
2019-05-15T23:47:18.037Z,2.50
2019-05-15T23:49:48.526Z,2.00
2019-05-15T23:52:18.081Z,2.27
2019-05-15T23:54:47.466Z,1.90
2019-05-15T23:57:18.009Z,2.43
2019-05-15T23:59:47.910Z,2.73
